createdAt,value
2024-03-13T00:01:30.285Z,-1.30
2024-03-13T00:04:00.405Z,-1.30
2024-03-13T00:06:28.382Z,-1.32
2024-03-13T00:08:56.659Z,-1.34
2024-03-13T00:11:27.253Z,-1.35
2024-03-13T00:13:56.567Z,-1.36
2024-03-13T00:16:24.213Z,-1.37
2024-03-13T00:18:53.182Z,-1.37
2024-03-13T00:21:20.689Z,-1.39
2024-03-13T00:23:48.108Z,-1.40
2024-03-13T00:26:15.547Z,-1.42
2024-03-13T00:28:43.663Z,-1.43
2024-03-13T00:31:11.110Z,-1.43
2024-03-13T00:33:40.074Z,-1.43
2024-03-13T00:36:08.841Z,-1.42
2024-03-13T00:38:36.260Z,-1.43
2024-03-13T00:41:03.996Z,-1.42
2024-03-13T00:43:31.607Z,-1.40
2024-03-13T00:46:01.242Z,-1.37
2024-03-13T00:48:33.052Z,-1.37
2024-03-13T00:51:02.172Z,-1.38
2024-03-13T00:53:29.715Z,-1.37
2024-03-13T00:55:59.532Z,-1.37
2024-03-13T00:58:27.974Z,-1.36
2024-03-13T01:00:56.021Z,-1.35
2024-03-13T01:03:24.124Z,-1.36
2024-03-13T01:05:51.617Z,-1.35
2024-03-13T01:08:19.032Z,-1.35
2024-03-13T01:10:47.415Z,-1.34
2024-03-13T01:13:14.901Z,-1.36
2024-03-13T01:15:42.491Z,-1.38
2024-03-13T01:18:10.974Z,-1.40
2024-03-13T01:20:38.472Z,-1.42
2024-03-13T01:23:06.461Z,-1.44
2024-03-13T01:25:34.035Z,-1.45
2024-03-13T01:28:01.696Z,-1.48
2024-03-13T01:30:30.729Z,-1.50
2024-03-13T01:32:59.330Z,-1.54
2024-03-13T01:35:27.361Z,-1.56
2024-03-13T01:37:59.506Z,-1.58
2024-03-13T01:40:29.566Z,-1.60
2024-03-13T01:43:15.670Z,-1.63
2024-03-13T01:46:07.973Z,-1.65
2024-03-13T01:48:54.243Z,-1.67
2024-03-13T01:51:40.991Z,-1.68
2024-03-13T01:54:27.336Z,-1.69
2024-03-13T01:57:14.402Z,-1.70
2024-03-13T02:00:11.394Z,-1.72
2024-03-13T02:02:42.426Z,-1.74
2024-03-13T02:05:09.911Z,-1.75
2024-03-13T02:07:37.390Z,-1.75
2024-03-13T02:10:05.662Z,-1.76
2024-03-13T02:12:33.137Z,-1.78
2024-03-13T02:15:00.644Z,-1.77
2024-03-13T02:17:28.488Z,-1.76
2024-03-13T02:19:55.998Z,-1.75
2024-03-13T02:22:23.808Z,-1.75
2024-03-13T02:24:51.447Z,-1.74
2024-03-13T02:27:19.363Z,-1.75
2024-03-13T02:29:48.886Z,-1.73
2024-03-13T02:32:16.325Z,-1.73
2024-03-13T02:34:45.897Z,-1.72
2024-03-13T02:37:13.485Z,-1.73
2024-03-13T02:39:41.200Z,-1.75
2024-03-13T02:42:11.141Z,-1.77
2024-03-13T02:44:38.750Z,-1.77
2024-03-13T02:47:06.624Z,-1.78
2024-03-13T02:49:34.119Z,-1.78
2024-03-13T02:52:01.891Z,-1.79
2024-03-13T02:54:29.388Z,-1.79
2024-03-13T02:56:58.747Z,-1.80
2024-03-13T02:59:26.252Z,-1.81
2024-03-13T03:01:54.474Z,-1.83
2024-03-13T03:04:22.373Z,-1.84
2024-03-13T03:06:49.858Z,-1.84
2024-03-13T03:09:17.547Z,-1.84
2024-03-13T03:11:45.980Z,-1.83
2024-03-13T03:14:13.962Z,-1.82
2024-03-13T03:16:41.392Z,-1.82
2024-03-13T03:19:08.916Z,-1.80
2024-03-13T03:21:36.488Z,-1.77
2024-03-13T03:24:04.289Z,-1.75
2024-03-13T03:26:31.715Z,-1.74
2024-03-13T03:28:59.201Z,-1.73
2024-03-13T03:31:27.069Z,-1.73
2024-03-13T03:33:54.631Z,-1.72
2024-03-13T03:36:22.169Z,-1.71
2024-03-13T03:38:50.220Z,-1.71
2024-03-13T03:41:17.665Z,-1.72
2024-03-13T03:43:45.353Z,-1.72
2024-03-13T03:46:15.859Z,-1.73
2024-03-13T03:48:43.845Z,-1.75
2024-03-13T03:51:18.253Z,-1.75
2024-03-13T03:53:49.171Z,-1.76
2024-03-13T03:56:17.607Z,-1.78
2024-03-13T03:58:45.169Z,-1.78
2024-03-13T04:01:14.250Z,-1.81
2024-03-13T04:03:42.408Z,-1.82
2024-03-13T04:06:10.104Z,-1.83
2024-03-13T04:08:37.548Z,-1.83
2024-03-13T04:11:05.180Z,-1.84
2024-03-13T04:13:35.645Z,-1.84
2024-03-13T04:16:06.175Z,-1.82
2024-03-13T04:18:34.029Z,-1.80
2024-03-13T04:21:01.660Z,-1.78
2024-03-13T04:23:30.977Z,-1.76
2024-03-13T04:25:58.590Z,-1.74
2024-03-13T04:28:26.182Z,-1.72
2024-03-13T04:30:53.759Z,-1.68
2024-03-13T04:33:21.234Z,-1.64
2024-03-13T04:35:48.786Z,-1.61
2024-03-13T04:38:16.886Z,-1.60
2024-03-13T04:40:44.689Z,-1.57
2024-03-13T04:43:12.132Z,-1.55
2024-03-13T04:45:39.706Z,-1.54
2024-03-13T04:48:07.734Z,-1.51
2024-03-13T04:50:39.813Z,-1.49
2024-03-13T04:53:07.324Z,-1.48
2024-03-13T04:55:34.908Z,-1.45
2024-03-13T04:58:02.553Z,-1.41
2024-03-13T05:00:30.133Z,-1.38
2024-03-13T05:02:57.618Z,-1.34
2024-03-13T05:05:25.088Z,-1.28
2024-03-13T05:07:55.968Z,-1.23
2024-03-13T05:10:25.361Z,-1.17
2024-03-13T05:12:53.442Z,-1.13
2024-03-13T05:15:20.914Z,-1.10
2024-03-13T05:17:50.994Z,-1.05
2024-03-13T05:20:19.143Z,-1.01
2024-03-13T05:22:47.730Z,-0.97
2024-03-13T05:25:20.760Z,-0.92
2024-03-13T05:27:48.582Z,-0.89
2024-03-13T05:30:16.661Z,-0.85
2024-03-13T05:32:44.583Z,-0.81
2024-03-13T05:35:14.322Z,-0.77
2024-03-13T05:37:41.916Z,-0.73
2024-03-13T05:40:18.652Z,-0.68
2024-03-13T05:42:46.802Z,-0.62
2024-03-13T05:45:14.577Z,-0.57
2024-03-13T05:47:42.711Z,-0.52
2024-03-13T05:50:14.059Z,-0.45
2024-03-13T05:52:42.096Z,-0.38
2024-03-13T05:55:09.714Z,-0.32
2024-03-13T05:57:40.081Z,-0.25
2024-03-13T06:00:13.928Z,-0.19
2024-03-13T06:02:44.594Z,-0.14
2024-03-13T06:05:16.360Z,-0.08
2024-03-13T06:07:44.090Z,-0.04
2024-03-13T06:10:12.231Z,0.04
2024-03-13T06:12:40.013Z,0.12
2024-03-13T06:15:15.840Z,0.20
2024-03-13T06:17:43.688Z,0.29
2024-03-13T06:20:14.956Z,0.38
2024-03-13T06:22:42.701Z,0.47
2024-03-13T06:25:10.500Z,0.57
2024-03-13T06:27:38.455Z,0.66
2024-03-13T06:30:06.777Z,0.77
2024-03-13T06:32:34.492Z,0.92
2024-03-13T06:35:03.721Z,1.18
2024-03-13T06:37:33.236Z,1.44
2024-03-13T06:40:01.020Z,1.64
2024-03-13T06:42:28.528Z,1.76
2024-03-13T06:44:56.138Z,1.87
2024-03-13T06:47:23.843Z,1.99
2024-03-13T06:49:51.443Z,2.06
2024-03-13T06:52:19.111Z,2.09
2024-03-13T06:54:46.819Z,2.18
2024-03-13T06:57:14.428Z,2.28
2024-03-13T06:59:43.326Z,2.37
2024-03-13T07:02:14.857Z,2.46
2024-03-13T07:04:43.772Z,2.62
2024-03-13T07:07:12.253Z,2.74
2024-03-13T07:09:40.371Z,2.90
2024-03-13T07:12:08.894Z,3.09
2024-03-13T07:14:36.573Z,3.28
2024-03-13T07:17:04.124Z,3.49
2024-03-13T07:19:34.015Z,3.85
2024-03-13T07:22:04.803Z,4.16
2024-03-13T07:24:32.375Z,4.45
2024-03-13T07:27:00.167Z,4.65
2024-03-13T07:29:28.803Z,4.74
2024-03-13T07:31:57.513Z,4.88
2024-03-13T07:34:25.275Z,5.04
2024-03-13T07:36:53.388Z,5.06
2024-03-13T07:39:22.417Z,5.14
2024-03-13T07:41:53.284Z,5.41
2024-03-13T07:44:20.800Z,5.57
2024-03-13T07:46:48.314Z,5.64
2024-03-13T07:49:15.962Z,5.73
2024-03-13T07:51:46.543Z,5.75
2024-03-13T07:54:14.113Z,5.66
2024-03-13T07:56:41.735Z,5.65
2024-03-13T07:59:09.290Z,5.74
2024-03-13T08:01:43.402Z,5.87
2024-03-13T08:04:12.914Z,5.92
2024-03-13T09:07:19.307Z,6.48
2024-03-13T09:09:46.988Z,6.35
2024-03-13T09:12:16.651Z,6.16
2024-03-13T09:14:44.248Z,6.01
2024-03-13T09:17:11.795Z,5.85
2024-03-13T09:19:39.357Z,5.76
2024-03-13T09:22:08.708Z,5.75
2024-03-13T09:24:36.505Z,5.66
2024-03-13T09:27:04.147Z,5.60
2024-03-13T09:29:33.180Z,5.67
2024-03-13T09:32:01.051Z,5.64
2024-03-13T09:34:30.908Z,5.61
2024-03-13T09:37:00.982Z,5.68
2024-03-13T09:39:28.619Z,5.79
2024-03-13T09:41:56.430Z,5.91
2024-03-13T09:44:24.049Z,6.08
2024-03-13T09:46:56.506Z,6.24
2024-03-13T09:49:26.852Z,6.46
2024-03-13T09:51:54.866Z,6.70
2024-03-13T09:54:22.722Z,6.85
2024-03-13T09:56:51.266Z,6.95
2024-03-13T09:59:18.802Z,6.92
2024-03-13T10:01:48.693Z,6.86
2024-03-13T10:04:26.071Z,6.72
2024-03-13T10:06:58.395Z,6.65
2024-03-13T10:09:27.343Z,6.69
2024-03-13T10:11:55.192Z,6.80
2024-03-13T10:14:22.987Z,7.02
2024-03-13T10:16:57.916Z,7.32
2024-03-13T10:19:28.219Z,7.81
2024-03-13T10:21:55.834Z,8.22
2024-03-13T10:24:26.990Z,8.49
2024-03-13T10:26:54.660Z,8.61
2024-03-13T10:29:22.265Z,8.60
2024-03-13T10:31:49.828Z,8.57
2024-03-13T10:34:17.398Z,8.50
2024-03-13T10:36:44.981Z,8.41
2024-03-13T10:39:13.755Z,8.35
2024-03-13T10:41:45.955Z,8.42
2024-03-13T10:44:14.021Z,8.34
2024-03-13T10:46:42.859Z,8.27
2024-03-13T10:49:15.299Z,8.23
2024-03-13T10:51:42.974Z,8.18
2024-03-13T10:54:12.211Z,8.12
2024-03-13T10:56:40.006Z,8.09
2024-03-13T10:59:09.682Z,8.04
2024-03-13T11:01:39.167Z,7.95
2024-03-13T11:04:07.032Z,7.87
2024-03-13T11:06:34.693Z,7.93
2024-03-13T11:09:02.370Z,8.07
2024-03-13T11:11:30.529Z,8.09
2024-03-13T11:13:59.703Z,8.20
2024-03-13T11:16:27.317Z,8.38
2024-03-13T11:18:57.003Z,8.41
2024-03-13T11:21:31.025Z,8.39
2024-03-13T11:24:02.214Z,8.52
2024-03-13T11:26:32.873Z,8.57
2024-03-13T11:29:01.894Z,8.58
2024-03-13T11:31:29.415Z,8.53
2024-03-13T11:33:58.098Z,8.64
2024-03-13T11:36:26.170Z,8.75
2024-03-13T11:38:53.840Z,8.62
2024-03-13T11:41:22.383Z,8.44
2024-03-13T11:43:50.819Z,8.35
2024-03-13T11:46:23.347Z,8.25
2024-03-13T11:48:51.412Z,8.06
2024-03-13T11:51:19.191Z,7.86
2024-03-13T11:53:48.680Z,7.77
2024-03-13T11:56:22.513Z,7.74
2024-03-13T11:58:50.875Z,7.73
2024-03-13T12:01:19.218Z,7.79
2024-03-13T12:03:49.492Z,7.91
2024-03-13T12:06:23.514Z,8.03
2024-03-13T12:08:53.681Z,8.15
2024-03-13T12:11:21.572Z,8.13
2024-03-13T12:13:49.236Z,8.08
2024-03-13T12:16:18.101Z,8.09
2024-03-13T12:18:48.775Z,8.14
2024-03-13T12:21:16.863Z,8.20
2024-03-13T12:23:46.950Z,8.23
2024-03-13T12:26:14.610Z,8.21
2024-03-13T12:28:42.119Z,8.20
2024-03-13T12:31:11.773Z,8.19
2024-03-13T12:33:39.948Z,8.14
2024-03-13T12:36:08.330Z,8.07
2024-03-13T12:38:39.292Z,8.12
2024-03-13T12:41:10.215Z,8.26
2024-03-13T12:43:38.956Z,8.33
2024-03-13T12:46:07.623Z,8.40
2024-03-13T12:48:35.381Z,8.45
2024-03-13T12:51:03.217Z,8.48
2024-03-13T12:53:31.053Z,8.51
2024-03-13T12:55:59.765Z,8.55
2024-03-13T12:58:27.401Z,8.53
2024-03-13T13:00:55.194Z,8.47
2024-03-13T13:03:23.811Z,8.40
2024-03-13T13:05:51.771Z,8.35
2024-03-13T13:08:23.036Z,8.25
2024-03-13T13:10:52.075Z,8.15
2024-03-13T13:13:19.718Z,8.08
2024-03-13T13:15:47.377Z,7.98
2024-03-13T13:18:15.518Z,7.90
2024-03-13T13:20:43.462Z,7.87
2024-03-13T13:23:13.509Z,7.80
2024-03-13T13:25:42.086Z,7.74
2024-03-13T13:28:13.788Z,7.68
2024-03-13T13:30:45.630Z,7.64
2024-03-13T13:33:13.585Z,7.58
2024-03-13T13:35:44.373Z,7.51
2024-03-13T13:38:13.478Z,7.46
2024-03-13T13:40:41.552Z,7.46
2024-03-13T13:43:12.144Z,7.45
2024-03-13T13:45:39.755Z,7.43
2024-03-13T13:48:08.216Z,7.40
2024-03-13T13:50:35.963Z,7.36
2024-03-13T13:53:03.579Z,7.32
2024-03-13T13:55:31.207Z,7.31
2024-03-13T13:57:58.752Z,7.30
2024-03-13T14:00:27.872Z,7.28
2024-03-13T14:02:56.483Z,7.27
2024-03-13T14:05:24.856Z,7.23
2024-03-13T14:07:55.210Z,7.18
2024-03-13T14:10:22.903Z,7.14
2024-03-13T14:12:51.785Z,7.11
2024-03-13T14:15:20.121Z,7.05
2024-03-13T14:17:48.902Z,7.02
2024-03-13T14:20:23.312Z,6.98
2024-03-13T14:22:56.021Z,6.93
2024-03-13T14:25:27.682Z,6.86
2024-03-13T14:27:56.212Z,6.77
2024-03-13T14:30:24.613Z,6.71
2024-03-13T14:32:52.845Z,6.62
2024-03-13T14:35:21.388Z,6.53
2024-03-13T14:37:49.060Z,6.44
2024-03-13T14:40:19.092Z,6.36
2024-03-13T14:42:48.345Z,6.28
2024-03-13T14:45:17.520Z,6.20
2024-03-13T14:47:46.993Z,6.14
2024-03-13T14:50:20.265Z,6.08
2024-03-13T14:52:59.516Z,6.02
2024-03-13T14:55:32.735Z,5.98
2024-03-13T14:58:00.419Z,5.93
2024-03-13T15:00:28.628Z,5.89
2024-03-13T15:02:56.565Z,5.86
2024-03-13T15:05:25.301Z,5.84
2024-03-13T15:07:53.134Z,5.80
2024-03-13T15:10:24.284Z,5.77
2024-03-13T15:12:53.363Z,5.73
2024-03-13T15:15:24.486Z,5.70
2024-03-13T15:17:53.136Z,5.67
2024-03-13T15:20:20.818Z,5.64
2024-03-13T15:22:49.066Z,5.60
2024-03-13T15:25:16.728Z,5.56
2024-03-13T15:27:44.299Z,5.53
2024-03-13T15:30:14.823Z,5.48
2024-03-13T15:32:44.571Z,5.45
2024-03-13T15:35:15.475Z,5.40
2024-03-13T15:37:43.857Z,5.34
2024-03-13T15:40:17.285Z,5.28
2024-03-13T15:42:45.523Z,5.24
2024-03-13T15:45:14.473Z,5.19
2024-03-13T15:47:46.865Z,5.16
2024-03-13T15:50:24.787Z,5.12
2024-03-13T15:52:57.626Z,5.08
2024-03-13T15:55:25.393Z,5.03
2024-03-13T15:57:53.267Z,4.99
2024-03-13T16:00:24.798Z,4.94
2024-03-13T16:02:53.264Z,4.91
2024-03-13T16:05:23.228Z,4.90
2024-03-13T16:07:57.571Z,4.86
2024-03-13T16:10:25.671Z,4.83
2024-03-13T16:12:53.218Z,4.79
2024-03-13T16:15:21.115Z,4.75
2024-03-13T16:17:48.973Z,4.72
2024-03-13T16:20:18.078Z,4.68
2024-03-13T16:22:49.106Z,4.63
2024-03-13T16:25:19.075Z,4.58
2024-03-13T16:27:47.487Z,4.53
2024-03-13T16:30:20.478Z,4.51
2024-03-13T16:32:49.108Z,4.47
2024-03-13T16:35:17.111Z,4.42
2024-03-13T16:37:46.157Z,4.37
2024-03-13T16:40:13.759Z,4.32
2024-03-13T16:42:41.584Z,4.27
2024-03-13T16:45:09.670Z,4.23
2024-03-13T16:47:40.985Z,4.18
2024-03-13T16:50:09.810Z,4.13
2024-03-13T16:52:37.695Z,4.10
2024-03-13T16:55:06.292Z,4.05
2024-03-13T16:57:35.868Z,4.02
2024-03-13T17:00:06.921Z,3.97
2024-03-13T17:02:34.568Z,3.89
2024-03-13T17:05:02.199Z,3.83
2024-03-13T17:07:29.848Z,3.77
2024-03-13T17:09:57.418Z,3.72
2024-03-13T17:12:25.160Z,3.66
2024-03-13T17:14:52.782Z,3.61
2024-03-13T17:17:22.727Z,3.58
2024-03-13T17:19:56.489Z,3.54
2024-03-13T17:22:25.553Z,3.48
2024-03-13T17:24:55.161Z,3.41
2024-03-13T17:27:22.887Z,3.36
2024-03-13T17:29:51.423Z,3.31
2024-03-13T17:32:20.867Z,3.28
2024-03-13T17:34:50.343Z,3.24
2024-03-13T17:37:18.001Z,3.23
2024-03-13T17:39:45.556Z,3.19
2024-03-13T17:42:14.861Z,3.14
2024-03-13T17:44:43.414Z,3.10
2024-03-13T17:47:12.283Z,3.06
2024-03-13T17:49:39.928Z,3.01
2024-03-13T17:52:08.160Z,2.98
2024-03-13T17:54:35.681Z,2.92
2024-03-13T17:57:03.988Z,2.90
2024-03-13T17:59:34.724Z,2.86
2024-03-13T18:02:05.135Z,2.82
2024-03-13T18:04:32.729Z,2.79
2024-03-13T18:07:00.238Z,2.78
2024-03-13T18:09:27.874Z,2.76
2024-03-13T18:11:55.530Z,2.75
2024-03-13T18:14:24.339Z,2.73
2024-03-13T18:16:51.903Z,2.72
2024-03-13T18:19:20.076Z,2.72
2024-03-13T18:21:47.577Z,2.69
2024-03-13T18:24:15.416Z,2.66
2024-03-13T18:26:43.009Z,2.65
2024-03-13T18:29:11.115Z,2.65
2024-03-13T18:31:38.675Z,2.64
2024-03-13T18:34:06.350Z,2.64
2024-03-13T18:36:34.022Z,2.64
2024-03-13T18:39:01.671Z,2.63
2024-03-13T18:41:29.488Z,2.64
2024-03-13T18:43:56.998Z,2.63
2024-03-13T18:46:24.631Z,2.62
2024-03-13T18:48:52.322Z,2.61
2024-03-13T18:51:19.932Z,2.59
2024-03-13T18:53:48.430Z,2.59
2024-03-13T18:56:16.077Z,2.57
2024-03-13T18:58:43.663Z,2.57
2024-03-13T19:01:11.539Z,2.55
2024-03-13T19:03:39.802Z,2.53
2024-03-13T19:06:07.789Z,2.49
2024-03-13T19:08:35.427Z,2.47
2024-03-13T19:11:02.975Z,2.42
2024-03-13T19:13:30.802Z,2.39
2024-03-13T19:16:01.514Z,2.35
2024-03-13T19:18:29.213Z,2.31
2024-03-13T19:20:57.039Z,2.29
2024-03-13T19:23:24.635Z,2.26
2024-03-13T19:25:52.253Z,2.24
2024-03-13T19:28:19.788Z,2.22
2024-03-13T19:30:47.440Z,2.18
2024-03-13T19:33:15.597Z,2.16
2024-03-13T19:35:43.403Z,2.14
2024-03-13T19:38:10.966Z,2.12
2024-03-13T19:40:41.303Z,2.08
2024-03-13T19:43:10.111Z,2.05
2024-03-13T19:45:37.777Z,2.01
2024-03-13T19:48:06.871Z,1.98
2024-03-13T19:50:35.620Z,1.94
2024-03-13T19:53:03.240Z,1.92
2024-03-13T19:55:30.850Z,1.90
2024-03-13T19:58:01.365Z,1.89
2024-03-13T20:00:31.467Z,1.87
2024-03-13T20:03:04.634Z,1.86
2024-03-13T20:05:33.998Z,1.85
2024-03-13T20:08:02.370Z,1.83
2024-03-13T20:10:30.091Z,1.82
2024-03-13T20:12:57.981Z,1.81
2024-03-13T20:15:26.444Z,1.82
2024-03-13T20:17:54.271Z,1.83
2024-03-13T20:20:21.939Z,1.84
2024-03-13T20:22:49.615Z,1.85
2024-03-13T20:25:17.224Z,1.85
2024-03-13T20:27:44.814Z,1.86
2024-03-13T20:30:12.778Z,1.85
2024-03-13T20:32:40.793Z,1.86
2024-03-13T20:35:08.490Z,1.86
2024-03-13T20:37:36.236Z,1.84
2024-03-13T20:40:11.716Z,1.83
2024-03-13T20:42:43.126Z,1.82
2024-03-13T20:45:14.606Z,1.81
2024-03-13T20:47:42.777Z,1.81
2024-03-13T20:50:10.464Z,1.80
2024-03-13T20:52:39.459Z,1.79
2024-03-13T20:55:09.601Z,1.78
2024-03-13T20:57:40.400Z,1.78
2024-03-13T21:00:18.727Z,1.79
2024-03-13T21:02:46.759Z,1.79
2024-03-13T21:05:14.309Z,1.81
2024-03-13T21:07:41.803Z,1.83
2024-03-13T21:10:11.397Z,1.85
2024-03-13T21:12:39.021Z,1.87
2024-03-13T21:15:10.464Z,1.90
2024-03-13T21:17:38.913Z,1.92
2024-03-13T21:20:11.058Z,1.93
2024-03-13T21:22:41.533Z,1.96
2024-03-13T21:25:09.506Z,1.97
2024-03-13T21:27:40.246Z,1.99
2024-03-13T21:30:11.215Z,2.02
2024-03-13T21:32:39.044Z,2.03
2024-03-13T21:35:06.878Z,2.04
2024-03-13T21:37:34.533Z,2.05
2024-03-13T21:40:02.046Z,2.07
2024-03-13T21:42:29.650Z,2.08
2024-03-13T21:44:57.331Z,2.10
2024-03-13T21:47:24.810Z,2.11
2024-03-13T21:49:53.337Z,2.11
2024-03-13T21:52:20.760Z,2.10
2024-03-13T21:54:48.286Z,2.11
2024-03-13T21:57:16.102Z,2.13
2024-03-13T21:59:43.600Z,2.13
2024-03-13T22:02:11.062Z,2.12
2024-03-13T22:04:40.278Z,2.11
2024-03-13T22:07:08.474Z,2.10
2024-03-13T22:09:36.184Z,2.09
2024-03-13T22:12:03.928Z,2.08
2024-03-13T22:14:31.418Z,2.07
2024-03-13T22:16:59.051Z,2.08
2024-03-13T22:19:26.530Z,2.08
2024-03-13T22:21:54.064Z,2.08
2024-03-13T22:24:21.680Z,2.07
2024-03-13T22:26:49.220Z,2.06
2024-03-13T22:29:17.711Z,2.06
2024-03-13T22:31:45.286Z,2.05
2024-03-13T22:34:12.775Z,2.05
2024-03-13T22:36:40.381Z,2.05
2024-03-13T22:39:10.689Z,2.05
2024-03-13T22:41:38.349Z,2.05
2024-03-13T22:44:05.764Z,2.06
2024-03-13T22:46:33.243Z,2.06
2024-03-13T22:49:00.874Z,2.07
2024-03-13T22:51:28.383Z,2.07
2024-03-13T22:53:55.881Z,2.07
2024-03-13T22:56:25.591Z,2.07
2024-03-13T22:58:53.746Z,2.08
2024-03-13T23:01:21.396Z,2.09
2024-03-13T23:03:48.857Z,2.08
2024-03-13T23:06:16.319Z,2.09
2024-03-13T23:08:43.888Z,2.09
2024-03-13T23:11:11.462Z,2.09
2024-03-13T23:13:38.912Z,2.09
2024-03-13T23:16:06.348Z,2.09
2024-03-13T23:18:34.485Z,2.10
2024-03-13T23:21:02.201Z,2.11
2024-03-13T23:23:30.214Z,2.12
2024-03-13T23:25:57.764Z,2.14
2024-03-13T23:28:25.316Z,2.14
2024-03-13T23:30:52.901Z,2.14
2024-03-13T23:33:20.593Z,2.15
2024-03-13T23:35:48.121Z,2.16
2024-03-13T23:38:15.672Z,2.17
2024-03-13T23:40:43.549Z,2.18
2024-03-13T23:43:11.221Z,2.18
2024-03-13T23:45:38.714Z,2.19
2024-03-13T23:48:06.465Z,2.20
2024-03-13T23:50:35.204Z,2.21
2024-03-13T23:53:02.637Z,2.22
2024-03-13T23:55:30.533Z,2.23
2024-03-13T23:57:57.960Z,2.24
